Terminal Aerodrome Forecast
Issued by NWS

Home | Current Version | Previous Version | Text Only | Print | Product List | Glossary On
Versions: 1 2 3 4 5 6 7 8 9 10 11 12 13 14 15
190
FTUS46 KSGX 171003 AAC
TAFCRQ
TAF AMD
KCRQ 171003Z 1710/1806 VRB04KT P6SM SCT015
     FM171200 VRB04KT P6SM BKN012
     FM171600 VRB04KT P6SM SCT015
     FM171900 24009KT P6SM SKC
     FM180200 VRB04KT P6SM SCT012
     FM180400 VRB03KT P6SM BKN010=

USA.gov is the U.S. government's official web portal to all federal, state and local government web resources and services.